Time;durP1;ratioP1;P1;durP2;ratioP2;P2;SDS_P1;SDS_P2;PMS_P1;PMS_P2;Temp;Humidity;BMP_temperature;BMP_pressure;BME280_temperature;BME280_humidity;BME280_pressure;Samples;Min_cycle;Max_cycle;Signal;HPM_P1;HPM_P2
2022/03/23 00:01:40;;;;;;;;;;;11.10;28.40;;;;;;4993920;28;19909;-65
2022/03/23 00:04:08;;;;;;;;;;;11.20;28.30;;;;;;4995533;28;20065;-64
2022/03/23 00:06:34;;;;;;;;;;;11.40;28.00;;;;;;4995600;28;19917;-65
2022/03/23 00:09:00;;;;;;;;;;;11.60;27.90;;;;;;4994761;28;19913;-66
2022/03/23 00:11:26;;;;;;;;;;;11.60;28.30;;;;;;4995063;28;19918;-65
2022/03/23 00:13:51;;;;;;;;;;;11.60;26.80;;;;;;4995500;28;20372;-66
2022/03/23 00:16:17;;;;;;;;;;;11.60;26.70;;;;;;4995340;28;20392;-65
2022/03/23 00:18:42;;;;;;;;;;;11.50;28.70;;;;;;4995003;28;19910;-65
2022/03/23 00:21:08;;;;;;;;;;;11.50;27.80;;;;;;4995141;28;20362;-66
2022/03/23 00:23:33;;;;;;;;;;;11.40;27.70;;;;;;4994926;28;19945;-65
2022/03/23 00:25:59;;;;;;;;;;;11.60;27.30;;;;;;4995037;28;20000;-65
2022/03/23 00:28:26;;;;;;;;;;;11.60;27.80;;;;;;4994697;28;19919;-66
2022/03/23 00:30:51;;;;;;;;;;;11.70;27.80;;;;;;4994988;28;19925;-65
2022/03/23 00:33:17;;;;;;;;;;;11.70;27.70;;;;;;4994713;28;20314;-66
2022/03/23 00:35:43;;;;;;;;;;;11.60;27.60;;;;;;4994828;28;19909;-65
2022/03/23 00:38:08;;;;;;;;;;;11.80;27.00;;;;;;4994525;28;19922;-65
2022/03/23 00:40:34;;;;;;;;;;;11.80;26.90;;;;;;4994876;28;19949;-64
2022/03/23 00:43:01;;;;;;;;;;;11.90;26.80;;;;;;4994540;28;19969;-64
2022/03/23 00:45:29;;;;;;;;;;;11.90;27.10;;;;;;4994485;28;19918;-64
2022/03/23 00:47:56;;;;;;;;;;;11.90;26.70;;;;;;4994469;28;20016;-65
2022/03/23 00:50:22;;;;;;;;;;;11.80;27.00;;;;;;4994739;28;20266;-65
2022/03/23 00:52:47;;;;;;;;;;;11.70;28.30;;;;;;4994475;28;19917;-64
2022/03/23 00:55:14;;;;;;;;;;;11.80;27.20;;;;;;4994340;28;20358;-65
2022/03/23 00:57:40;;;;;;;;;;;11.90;26.80;;;;;;4994644;28;19910;-66
2022/03/23 01:00:12;;;;;;;;;;;12.00;26.40;;;;;;4994486;28;19909;-65
2022/03/23 01:02:39;;;;;;;;;;;12.20;26.10;;;;;;4994308;28;20004;-64
2022/03/23 01:05:05;;;;;;;;;;;12.20;26.00;;;;;;4994270;28;19956;-65
2022/03/23 01:07:30;;;;;;;;;;;12.20;26.00;;;;;;4994450;28;19941;-65
2022/03/23 01:09:56;;;;;;;;;;;12.10;26.10;;;;;;4994406;28;20334;-64
2022/03/23 01:12:22;;;;;;;;;;;12.20;25.70;;;;;;4994150;28;19910;-64
2022/03/23 01:14:48;;;;;;;;;;;12.20;25.90;;;;;;4994345;28;20005;-64
2022/03/23 01:17:13;;;;;;;;;;;12.20;25.90;;;;;;4994556;28;20434;-65
2022/03/23 01:19:40;;;;;;;;;;;12.20;25.80;;;;;;4994334;28;20384;-64
2022/03/23 01:22:06;;;;;;;;;;;12.30;25.60;;;;;;4996066;28;20008;-65
2022/03/23 01:24:31;;;;;;;;;;;12.10;26.00;;;;;;4998222;28;20321;-64
2022/03/23 01:26:57;;;;;;;;;;;12.20;25.70;;;;;;4998322;28;19910;-64
2022/03/23 01:29:22;;;;;;;;;;;12.20;25.70;;;;;;4998369;28;19921;-64
2022/03/23 01:31:48;;;;;;;;;;;12.20;25.50;;;;;;4998375;28;20389;-65
2022/03/23 01:34:14;;;;;;;;;;;12.20;25.60;;;;;;4998273;28;20306;-65
2022/03/23 01:36:40;;;;;;;;;;;12.20;25.70;;;;;;4998023;28;19914;-66
2022/03/23 01:39:06;;;;;;;;;;;12.20;25.60;;;;;;4998122;28;19921;-64
2022/03/23 01:41:34;;;;;;;;;;;12.20;25.80;;;;;;4998108;28;19916;-66
2022/03/23 01:43:59;;;;;;;;;;;12.10;25.70;;;;;;4998166;28;19917;-66
2022/03/23 01:46:26;;;;;;;;;;;12.20;25.60;;;;;;4998058;28;19913;-66
2022/03/23 01:48:51;;;;;;;;;;;12.20;25.60;;;;;;4997753;28;20354;-65
2022/03/23 01:51:17;;;;;;;;;;;12.00;25.80;;;;;;4998057;28;19914;-65
2022/03/23 01:53:42;;;;;;;;;;;12.10;26.00;;;;;;4998004;28;20278;-65
2022/03/23 01:56:11;;;;;;;;;;;12.20;26.20;;;;;;4998012;28;19965;-64
2022/03/23 01:58:36;;;;;;;;;;;12.20;25.70;;;;;;4997809;28;19957;-64
2022/03/23 02:01:02;;;;;;;;;;;12.20;25.80;;;;;;4997777;28;20338;-65
2022/03/23 02:03:28;;;;;;;;;;;12.10;25.80;;;;;;4997669;28;19910;-65
2022/03/23 02:05:53;;;;;;;;;;;12.00;26.00;;;;;;4997621;28;19917;-63
2022/03/23 02:08:19;;;;;;;;;;;11.90;26.20;;;;;;4996071;28;20320;-64
2022/03/23 02:10:45;;;;;;;;;;;11.90;26.40;;;;;;4997546;28;20010;-63
2022/03/23 02:13:11;;;;;;;;;;;11.90;26.50;;;;;;4997641;28;19917;-64
2022/03/23 02:15:37;;;;;;;;;;;11.80;27.00;;;;;;4997252;28;19909;-65
2022/03/23 02:18:04;;;;;;;;;;;11.70;27.50;;;;;;4997272;28;20378;-65
2022/03/23 02:20:29;;;;;;;;;;;11.70;27.60;;;;;;4997621;28;20432;-64
2022/03/23 02:22:55;;;;;;;;;;;11.60;27.90;;;;;;4997156;28;19917;-64
2022/03/23 02:25:23;;;;;;;;;;;11.70;27.10;;;;;;4997216;28;19910;-64
2022/03/23 02:27:50;;;;;;;;;;;11.60;26.90;;;;;;4997436;28;19910;-65
2022/03/23 02:30:15;;;;;;;;;;;11.70;26.70;;;;;;4997358;28;19937;-65
2022/03/23 02:32:41;;;;;;;;;;;11.80;27.00;;;;;;4996961;28;20394;-65
2022/03/23 02:35:08;;;;;;;;;;;11.80;26.20;;;;;;4997221;28;19917;-64
2022/03/23 02:37:35;;;;;;;;;;;11.80;26.10;;;;;;4997034;28;19929;-65
2022/03/23 02:40:01;;;;;;;;;;;11.90;26.00;;;;;;4997116;28;19916;-66
2022/03/23 02:42:26;;;;;;;;;;;11.90;25.90;;;;;;4997146;28;19996;-65
2022/03/23 02:44:52;;;;;;;;;;;12.00;25.80;;;;;;4997112;28;19917;-65
2022/03/23 02:47:18;;;;;;;;;;;12.00;25.70;;;;;;4997127;28;19917;-64
2022/03/23 02:49:43;;;;;;;;;;;12.00;26.30;;;;;;4996987;28;19918;-64
2022/03/23 02:52:09;;;;;;;;;;;12.10;25.80;;;;;;4995507;28;20485;-65
2022/03/23 03:03:14;;;;;;;;;;;12.10;25.80;;;;;;4996498;28;19917;-65
2022/03/23 03:05:40;;;;;;;;;;;12.00;25.50;;;;;;4996534;28;20359;-66
2022/03/23 03:10:49;;;;;;;;;;;12.00;25.60;;;;;;4996313;28;19925;-65
2022/03/23 03:13:14;;;;;;;;;;;12.10;25.50;;;;;;4996393;28;19917;-65
2022/03/23 03:15:40;;;;;;;;;;;12.00;25.50;;;;;;4996489;28;19917;-65
2022/03/23 03:18:06;;;;;;;;;;;11.90;25.80;;;;;;4996456;28;19917;-64
2022/03/23 03:20:31;;;;;;;;;;;11.90;25.80;;;;;;4996246;28;20000;-65
2022/03/23 03:22:58;;;;;;;;;;;11.90;25.70;;;;;;4996250;28;19910;-64
2022/03/23 03:25:24;;;;;;;;;;;12.00;25.70;;;;;;4996129;28;20389;-64
2022/03/23 03:27:49;;;;;;;;;;;12.00;25.80;;;;;;4996310;28;19949;-64
2022/03/23 03:30:17;;;;;;;;;;;11.90;26.10;;;;;;4996106;28;19944;-64
2022/03/23 03:32:43;;;;;;;;;;;11.80;26.00;;;;;;4996261;28;19914;-64
2022/03/23 03:35:09;;;;;;;;;;;11.90;26.10;;;;;;4996166;28;19988;-64
2022/03/23 03:37:34;;;;;;;;;;;11.80;25.90;;;;;;4995726;28;19946;-64
2022/03/23 03:40:00;;;;;;;;;;;11.90;26.10;;;;;;4995893;28;20366;-64
2022/03/23 03:42:26;;;;;;;;;;;11.80;26.10;;;;;;4995819;28;19914;-63
2022/03/23 03:44:52;;;;;;;;;;;11.80;26.10;;;;;;4995727;28;19914;-64
2022/03/23 03:47:18;;;;;;;;;;;11.80;26.00;;;;;;4995836;28;19914;-65
2022/03/23 03:49:43;;;;;;;;;;;11.80;26.20;;;;;;4994728;28;19917;-64
2022/03/23 03:52:09;;;;;;;;;;;11.80;26.10;;;;;;4995774;28;20219;-65
2022/03/23 03:54:35;;;;;;;;;;;11.70;26.30;;;;;;4996100;28;19914;-64
2022/03/23 03:57:00;;;;;;;;;;;11.80;26.30;;;;;;4997273;28;20266;-65
2022/03/23 03:59:26;;;;;;;;;;;11.90;26.00;;;;;;4997699;28;19914;-64
2022/03/23 04:01:51;;;;;;;;;;;11.90;26.10;;;;;;4997592;28;19914;-65
2022/03/23 04:04:17;;;;;;;;;;;11.80;26.30;;;;;;4995723;28;19942;-64
2022/03/23 04:06:43;;;;;;;;;;;11.90;25.90;;;;;;4995561;28;19909;-64
2022/03/23 04:09:08;;;;;;;;;;;11.80;26.00;;;;;;4995238;28;20000;-65
2022/03/23 04:11:35;;;;;;;;;;;11.80;26.10;;;;;;4995492;28;19972;-63
2022/03/23 04:14:01;;;;;;;;;;;11.80;26.10;;;;;;4995205;28;20277;-65
2022/03/23 04:16:26;;;;;;;;;;;11.80;26.10;;;;;;4995407;28;19914;-64
2022/03/23 04:18:52;;;;;;;;;;;11.90;26.10;;;;;;4995068;28;19910;-65
2022/03/23 04:21:17;;;;;;;;;;;11.80;26.10;;;;;;4995088;28;20425;-67
2022/03/23 04:23:43;;;;;;;;;;;11.90;26.10;;;;;;4994902;28;19910;-65
2022/03/23 04:26:08;;;;;;;;;;;11.90;26.10;;;;;;4993756;28;20270;-65
2022/03/23 04:28:34;;;;;;;;;;;11.80;26.10;;;;;;4994929;28;19950;-65
2022/03/23 04:31:01;;;;;;;;;;;11.80;26.30;;;;;;4994926;28;20322;-65
2022/03/23 04:33:26;;;;;;;;;;;11.80;26.10;;;;;;4994988;28;19922;-66
2022/03/23 04:35:52;;;;;;;;;;;11.80;26.20;;;;;;4995278;28;20244;-66
2022/03/23 04:38:18;;;;;;;;;;;11.80;26.20;;;;;;4994542;28;20004;-65
2022/03/23 04:40:45;;;;;;;;;;;11.70;26.00;;;;;;4993804;28;19910;-66
2022/03/23 04:43:10;;;;;;;;;;;11.80;26.10;;;;;;4994774;28;20329;-65
2022/03/23 04:45:36;;;;;;;;;;;11.80;26.30;;;;;;4995032;28;19968;-66
2022/03/23 04:48:01;;;;;;;;;;;11.70;26.20;;;;;;4994731;28;19949;-66
2022/03/23 04:50:27;;;;;;;;;;;11.70;26.10;;;;;;4994685;28;20013;-67
2022/03/23 04:52:53;;;;;;;;;;;11.70;26.20;;;;;;4994633;28;20347;-67
2022/03/23 04:55:18;;;;;;;;;;;11.60;26.30;;;;;;4994740;28;19910;-65
2022/03/23 04:57:44;;;;;;;;;;;11.60;26.40;;;;;;4994345;28;19910;-65
2022/03/23 05:00:13;;;;;;;;;;;11.60;26.80;;;;;;4994806;28;19914;-66
2022/03/23 05:02:38;;;;;;;;;;;11.70;26.30;;;;;;4999509;28;20012;-66
2022/03/23 05:05:08;;;;;;;;;;;11.70;26.40;;;;;;5003904;28;19909;-67
2022/03/23 05:07:34;;;;;;;;;;;11.70;26.30;;;;;;5005656;28;19916;-67
2022/03/23 05:09:59;;;;;;;;;;;11.70;26.10;;;;;;5002448;28;20012;-66
2022/03/23 05:12:25;;;;;;;;;;;11.70;26.30;;;;;;5001315;28;19945;-67
2022/03/23 05:14:50;;;;;;;;;;;11.80;26.10;;;;;;4997238;28;19981;-66
2022/03/23 05:17:16;;;;;;;;;;;11.80;26.20;;;;;;4995929;28;19953;-66
2022/03/23 05:19:42;;;;;;;;;;;11.80;25.90;;;;;;4995170;28;19910;-66
2022/03/23 05:22:08;;;;;;;;;;;11.80;25.90;;;;;;4994219;28;20317;-65
2022/03/23 05:24:34;;;;;;;;;;;11.80;26.00;;;;;;4994570;28;19945;-66
2022/03/23 05:27:00;;;;;;;;;;;11.90;25.90;;;;;;4994572;28;19910;-66
2022/03/23 05:29:25;;;;;;;;;;;11.90;25.90;;;;;;4994250;28;19917;-67
2022/03/23 05:31:51;;;;;;;;;;;11.80;25.90;;;;;;4994066;28;19967;-66
2022/03/23 05:34:17;;;;;;;;;;;11.80;25.90;;;;;;4994182;28;19910;-65
2022/03/23 05:36:42;;;;;;;;;;;11.70;26.30;;;;;;4993786;28;20095;-66
2022/03/23 05:39:08;;;;;;;;;;;11.70;26.50;;;;;;4994257;28;19964;-66
2022/03/23 05:41:33;;;;;;;;;;;11.80;26.50;;;;;;4994417;28;19917;-66
2022/03/23 05:43:59;;;;;;;;;;;11.80;26.80;;;;;;4994336;28;20354;-66
2022/03/23 05:46:25;;;;;;;;;;;11.80;26.30;;;;;;4994488;28;19964;-68
2022/03/23 05:48:53;;;;;;;;;;;11.80;26.50;;;;;;4994063;28;19909;-67
2022/03/23 05:51:18;;;;;;;;;;;11.90;26.10;;;;;;4993915;28;19953;-65
2022/03/23 05:53:44;;;;;;;;;;;11.90;26.10;;;;;;4993965;28;19959;-65
2022/03/23 05:56:10;;;;;;;;;;;11.90;26.10;;;;;;4994085;28;19980;-65
2022/03/23 05:58:35;;;;;;;;;;;12.00;26.10;;;;;;4993988;28;20408;-65
2022/03/23 06:01:02;;;;;;;;;;;12.10;26.00;;;;;;4994001;28;19957;-66
2022/03/23 06:03:27;;;;;;;;;;;12.10;26.20;;;;;;4993750;28;20330;-66
2022/03/23 06:05:53;;;;;;;;;;;12.10;26.10;;;;;;4994065;28;19945;-65
2022/03/23 06:08:19;;;;;;;;;;;12.10;26.20;;;;;;4996209;28;19976;-67
2022/03/23 06:10:44;;;;;;;;;;;12.00;26.30;;;;;;4997609;28;19971;-63
2022/03/23 06:13:10;;;;;;;;;;;12.10;26.30;;;;;;4997350;28;19997;-66
2022/03/23 06:15:36;;;;;;;;;;;12.10;26.30;;;;;;4997707;28;19913;-66
2022/03/23 06:18:01;;;;;;;;;;;12.20;26.10;;;;;;4997563;28;20385;-65
2022/03/23 06:20:27;;;;;;;;;;;12.20;26.10;;;;;;4997192;28;19949;-66
2022/03/23 06:22:52;;;;;;;;;;;12.20;26.10;;;;;;4997689;28;20362;-65
2022/03/23 06:25:18;;;;;;;;;;;12.30;26.00;;;;;;4997454;28;19910;-65
2022/03/23 06:27:43;;;;;;;;;;;12.40;26.00;;;;;;4997267;28;20061;-65
2022/03/23 06:30:09;;;;;;;;;;;12.40;25.80;;;;;;4996923;28;19924;-65
2022/03/23 06:32:35;;;;;;;;;;;12.40;26.10;;;;;;4997246;28;19937;-63
2022/03/23 06:35:01;;;;;;;;;;;12.60;29.30;;;;;;4997040;28;19910;-67
2022/03/23 06:37:27;;;;;;;;;;;13.10;32.80;;;;;;4996780;28;19977;-71
2022/03/23 06:39:52;;;;;;;;;;;13.50;34.80;;;;;;4997202;28;19910;-64
2022/03/23 06:42:18;;;;;;;;;;;14.00;32.30;;;;;;4996920;28;19964;-63
2022/03/23 06:44:44;;;;;;;;;;;14.20;28.20;;;;;;4996271;28;20378;-65
2022/03/23 06:47:10;;;;;;;;;;;14.30;25.80;;;;;;4996508;28;19914;-67
2022/03/23 06:49:35;;;;;;;;;;;14.20;24.90;;;;;;4996203;28;20289;-63
2022/03/23 06:52:01;;;;;;;;;;;14.30;24.90;;;;;;4995964;28;20001;-65
2022/03/23 06:54:26;;;;;;;;;;;14.60;25.50;;;;;;4996075;28;19910;-64
2022/03/23 06:56:52;;;;;;;;;;;14.90;25.20;;;;;;4995969;28;19909;-65
2022/03/23 06:59:18;;;;;;;;;;;15.00;23.80;;;;;;4995959;28;19949;-66
2022/03/23 07:01:44;;;;;;;;;;;15.20;24.10;;;;;;4996931;28;19984;-64
2022/03/23 07:04:09;;;;;;;;;;;15.00;25.00;;;;;;4997312;28;19910;-64
2022/03/23 07:06:35;;;;;;;;;;;15.30;23.60;;;;;;4999668;28;19910;-71
2022/03/23 07:11:44;;;;;;;;;;;15.70;25.20;;;;;;5005570;28;19982;-65
2022/03/23 07:14:10;;;;;;;;;;;15.70;25.40;;;;;;5005288;28;19910;-65
2022/03/23 07:16:35;;;;;;;;;;;15.90;24.00;;;;;;4996574;28;19936;-69
2022/03/23 07:19:01;;;;;;;;;;;15.90;23.10;;;;;;4995319;28;19956;-69
2022/03/23 07:21:27;;;;;;;;;;;15.70;22.80;;;;;;4996397;28;19910;-68
2022/03/23 07:23:52;;;;;;;;;;;16.00;27.00;;;;;;4996020;28;19910;-68
2022/03/23 07:26:18;;;;;;;;;;;16.00;24.10;;;;;;4996197;28;19913;-67
2022/03/23 07:28:44;;;;;;;;;;;16.00;22.20;;;;;;4995935;28;19910;-66
2022/03/23 07:31:10;;;;;;;;;;;16.10;22.40;;;;;;4996094;28;19918;-66
2022/03/23 07:33:35;;;;;;;;;;;16.30;22.40;;;;;;4995566;28;19980;-66
2022/03/23 07:36:02;;;;;;;;;;;16.50;21.80;;;;;;4996136;28;20286;-65
2022/03/23 07:38:28;;;;;;;;;;;16.40;21.80;;;;;;4995540;28;19922;-65
2022/03/23 07:40:53;;;;;;;;;;;16.30;21.80;;;;;;4995602;28;19917;-65
2022/03/23 07:43:19;;;;;;;;;;;16.30;22.50;;;;;;4995764;28;19957;-64
2022/03/23 07:45:45;;;;;;;;;;;16.30;22.10;;;;;;4995808;28;19957;-65
2022/03/23 07:48:11;;;;;;;;;;;16.60;21.90;;;;;;4995718;28;19949;-66
2022/03/23 07:50:37;;;;;;;;;;;16.60;21.70;;;;;;4995442;28;20334;-66
2022/03/23 07:53:02;;;;;;;;;;;16.90;22.00;;;;;;4995359;28;20358;-67
2022/03/23 07:55:28;;;;;;;;;;;17.00;22.10;;;;;;4994085;28;20001;-65
2022/03/23 07:57:53;;;;;;;;;;;17.10;21.60;;;;;;4995533;28;19953;-68
2022/03/23 08:00:20;;;;;;;;;;;17.30;21.60;;;;;;4994936;28;20377;-63
2022/03/23 08:02:46;;;;;;;;;;;17.40;21.30;;;;;;4994925;28;19925;-63
2022/03/23 08:05:11;;;;;;;;;;;17.20;21.50;;;;;;4993200;28;19977;-63
2022/03/23 08:07:37;;;;;;;;;;;17.30;21.70;;;;;;4994792;28;19914;-65
2022/03/23 08:10:03;;;;;;;;;;;17.40;21.40;;;;;;4993327;28;20100;-63
2022/03/23 08:12:28;;;;;;;;;;;17.20;20.70;;;;;;4994601;28;19910;-64
2022/03/23 08:14:54;;;;;;;;;;;17.20;21.10;;;;;;4994588;28;19913;-64
2022/03/23 08:17:20;;;;;;;;;;;17.30;21.60;;;;;;4992686;28;19925;-67
2022/03/23 08:20:32;;;;;;;;;;;17.50;20.90;;;;;;4989447;28;20048;-68
2022/03/23 08:22:31;;;;;;;;;;;17.40;20.50;;;;;;4994117;28;19932;-62
2022/03/23 08:24:56;;;;;;;;;;;17.40;21.20;;;;;;4985392;28;20263;-65
2022/03/23 08:27:22;;;;;;;;;;;17.40;20.60;;;;;;4994633;28;19918;-66
2022/03/23 08:29:48;;;;;;;;;;;17.50;21.60;;;;;;4994461;28;19918;-68
2022/03/23 08:32:13;;;;;;;;;;;17.60;21.00;;;;;;4994693;28;19916;-67
2022/03/23 08:34:39;;;;;;;;;;;17.70;20.50;;;;;;4994705;28;19956;-66
2022/03/23 08:37:04;;;;;;;;;;;17.70;20.40;;;;;;4991139;28;20012;-65
2022/03/23 08:39:30;;;;;;;;;;;17.80;21.30;;;;;;4986067;28;19909;-65
2022/03/23 08:41:55;;;;;;;;;;;17.80;20.70;;;;;;4994399;28;19914;-67
2022/03/23 08:44:21;;;;;;;;;;;17.80;20.30;;;;;;4994203;28;19914;-71
2022/03/23 08:46:47;;;;;;;;;;;17.70;20.20;;;;;;4973935;28;20367;-69
2022/03/23 08:49:13;;;;;;;;;;;17.70;19.80;;;;;;4979705;28;19918;-63
2022/03/23 08:51:38;;;;;;;;;;;17.70;20.20;;;;;;4987683;28;19918;-67
2022/03/23 08:54:04;;;;;;;;;;;17.80;19.90;;;;;;4994029;28;19913;-68
2022/03/23 08:56:30;;;;;;;;;;;17.90;20.20;;;;;;4994237;28;19910;-66
2022/03/23 08:58:55;;;;;;;;;;;18.00;20.80;;;;;;4993948;28;20004;-66
2022/03/23 09:01:21;;;;;;;;;;;18.10;19.90;;;;;;4994561;28;19910;-62
2022/03/23 09:03:46;;;;;;;;;;;18.20;20.30;;;;;;4994051;28;20235;-64
2022/03/23 09:06:12;;;;;;;;;;;18.30;19.90;;;;;;4993443;28;19914;-65
2022/03/23 09:08:38;;;;;;;;;;;18.50;20.20;;;;;;4994380;28;20322;-65
2022/03/23 09:11:04;;;;;;;;;;;18.70;19.30;;;;;;4994014;28;20012;-66
2022/03/23 09:13:29;;;;;;;;;;;18.60;19.40;;;;;;4980573;28;19914;-70
2022/03/23 09:15:55;;;;;;;;;;;18.50;19.60;;;;;;4974944;28;20004;-67
2022/03/23 09:18:21;;;;;;;;;;;18.50;20.00;;;;;;4977905;28;19910;-68
2022/03/23 09:20:46;;;;;;;;;;;18.70;20.70;;;;;;4994243;28;20390;-65
2022/03/23 09:23:12;;;;;;;;;;;18.80;20.30;;;;;;4994179;28;19997;-65
2022/03/23 09:25:39;;;;;;;;;;;18.80;20.30;;;;;;4994082;28;20358;-65
2022/03/23 09:28:05;;;;;;;;;;;18.90;20.10;;;;;;4993937;28;20045;-67
2022/03/23 09:30:31;;;;;;;;;;;18.90;19.40;;;;;;4993943;28;20013;-65
2022/03/23 09:32:57;;;;;;;;;;;18.70;19.20;;;;;;4994153;28;19910;-66
2022/03/23 09:35:23;;;;;;;;;;;18.80;19.70;;;;;;4994182;28;19917;-66
2022/03/23 09:37:48;;;;;;;;;;;18.80;18.90;;;;;;4993750;28;19922;-66
2022/03/23 09:40:24;;;;;;;;;;;18.80;19.20;;;;;;4989752;28;20027;-66
2022/03/23 09:42:53;;;;;;;;;;;18.80;20.40;;;;;;4975837;28;19917;-65
2022/03/23 09:45:51;;;;;;;;;;;18.80;20.70;;;;;;4985174;28;19972;-67
2022/03/23 09:48:11;;;;;;;;;;;18.80;19.60;;;;;;4980100;28;20449;-65
2022/03/23 09:50:37;;;;;;;;;;;18.80;20.00;;;;;;4977931;28;19937;-68
2022/03/23 09:53:03;;;;;;;;;;;18.80;19.60;;;;;;4978092;28;19910;-67
2022/03/23 09:55:29;;;;;;;;;;;18.90;19.70;;;;;;4993508;28;19921;-69
2022/03/23 09:57:55;;;;;;;;;;;18.90;19.70;;;;;;4997510;28;19916;-67
2022/03/23 10:00:21;;;;;;;;;;;18.90;19.40;;;;;;4997725;28;19914;-63
2022/03/23 10:03:10;;;;;;;;;;;19.00;20.30;;;;;;4997242;28;19910;-64
2022/03/23 10:05:45;;;;;;;;;;;19.00;19.20;;;;;;4997232;28;20443;-65
2022/03/23 10:08:29;;;;;;;;;;;19.00;18.80;;;;;;4996527;28;20008;-62
2022/03/23 10:10:57;;;;;;;;;;;19.10;19.90;;;;;;4992794;28;20259;-65
2022/03/23 10:13:38;;;;;;;;;;;19.10;19.30;;;;;;4996810;28;19964;-64
2022/03/23 10:16:22;;;;;;;;;;;19.10;19.30;;;;;;4996572;28;19910;-67
2022/03/23 10:18:48;;;;;;;;;;;19.20;19.50;;;;;;4993858;28;19917;-62
2022/03/23 10:21:14;;;;;;;;;;;19.20;21.50;;;;;;4997147;28;19910;-62
2022/03/23 10:23:49;;;;;;;;;;;19.40;22.90;;;;;;4997285;28;20007;-62
2022/03/23 10:26:14;;;;;;;;;;;19.40;23.30;;;;;;4997058;28;19979;-68
2022/03/23 10:28:40;;;;;;;;;;;19.50;22.60;;;;;;4996263;28;20396;-64
2022/03/23 10:31:16;;;;;;;;;;;19.40;20.20;;;;;;4996100;28;19926;-62
2022/03/23 10:33:42;;;;;;;;;;;19.50;21.30;;;;;;4995969;28;19921;-62
2022/03/23 10:36:08;;;;;;;;;;;19.40;22.50;;;;;;4996289;28;19910;-63
2022/03/23 10:38:37;;;;;;;;;;;19.60;22.60;;;;;;4996460;28;19921;-63
2022/03/23 10:41:12;;;;;;;;;;;19.60;22.30;;;;;;4996576;28;20472;-64
2022/03/23 10:43:38;;;;;;;;;;;19.70;22.30;;;;;;4996596;28;19964;-64
2022/03/23 10:46:08;;;;;;;;;;;19.80;21.90;;;;;;4999049;28;19910;-65
2022/03/23 10:48:34;;;;;;;;;;;20.00;21.10;;;;;;4999440;28;19917;-63
2022/03/23 10:50:59;;;;;;;;;;;20.00;21.50;;;;;;5005925;28;19918;-63
2022/03/23 10:53:38;;;;;;;;;;;19.70;21.90;;;;;;4999692;28;19910;-66
2022/03/23 10:56:04;;;;;;;;;;;19.60;21.00;;;;;;4991788;28;19956;-63
2022/03/23 10:58:30;;;;;;;;;;;19.50;22.00;;;;;;4996037;28;19918;-64
2022/03/23 11:00:57;;;;;;;;;;;19.70;21.40;;;;;;4996156;28;20302;-64
2022/03/23 11:03:37;;;;;;;;;;;19.80;20.90;;;;;;4995796;28;19916;-63
2022/03/23 11:06:04;;;;;;;;;;;19.70;20.90;;;;;;4994660;28;19957;-64
2022/03/23 11:08:31;;;;;;;;;;;19.70;21.30;;;;;;4996615;28;20301;-63
2022/03/23 11:16:35;;;;;;;;;;;19.50;20.90;;;;;;4996375;28;19956;-65
2022/03/23 11:19:11;;;;;;;;;;;19.20;20.10;;;;;;4996028;28;19910;-64
2022/03/23 11:21:55;;;;;;;;;;;19.10;20.30;;;;;;4995656;28;19917;-64
2022/03/23 11:24:21;;;;;;;;;;;19.10;20.00;;;;;;4995934;28;19914;-66
2022/03/23 11:26:47;;;;;;;;;;;18.90;20.10;;;;;;4995915;28;20387;-66
2022/03/23 11:29:13;;;;;;;;;;;18.90;20.10;;;;;;4996079;28;19909;-66
2022/03/23 11:31:38;;;;;;;;;;;18.80;19.70;;;;;;4996228;28;19921;-65
2022/03/23 11:34:04;;;;;;;;;;;19.00;20.80;;;;;;4995696;28;19910;-65
2022/03/23 11:36:30;;;;;;;;;;;19.30;20.70;;;;;;4995707;28;20278;-64
2022/03/23 11:38:59;;;;;;;;;;;19.60;20.30;;;;;;4995786;28;20016;-62
2022/03/23 11:41:25;;;;;;;;;;;19.80;20.80;;;;;;4995745;28;19916;-61
2022/03/23 11:43:50;;;;;;;;;;;20.00;20.00;;;;;;4995548;28;20309;-62
2022/03/23 11:46:24;;;;;;;;;;;20.10;19.60;;;;;;4995827;28;20001;-64
2022/03/23 11:49:08;;;;;;;;;;;20.20;19.20;;;;;;4995786;28;19910;-64
2022/03/23 11:51:49;;;;;;;;;;;20.30;18.90;;;;;;4995673;28;19918;-65
2022/03/23 11:54:18;;;;;;;;;;;20.40;18.30;;;;;;4991998;28;20421;-63
2022/03/23 11:56:47;;;;;;;;;;;20.40;19.20;;;;;;4995077;28;19910;-65
2022/03/23 11:59:30;;;;;;;;;;;20.50;18.90;;;;;;4994849;28;19917;-64
2022/03/23 12:01:59;;;;;;;;;;;20.50;18.90;;;;;;4985590;28;19913;-65
2022/03/23 12:04:26;;;;;;;;;;;20.40;18.90;;;;;;4994859;28;19917;-66
2022/03/23 12:07:00;;;;;;;;;;;20.10;19.20;;;;;;4994866;28;19999;-62
2022/03/23 12:09:29;;;;;;;;;;;20.20;19.60;;;;;;4995288;28;19961;-61
2022/03/23 12:11:54;;;;;;;;;;;20.20;20.00;;;;;;4995294;28;19961;-62
2022/03/23 12:14:34;;;;;;;;;;;20.20;19.50;;;;;;4995160;28;19909;-62
2022/03/23 12:17:01;;;;;;;;;;;20.30;20.10;;;;;;4995007;28;19953;-63
2022/03/23 12:19:31;;;;;;;;;;;20.50;19.30;;;;;;4995068;28;19906;-63
2022/03/23 12:22:06;;;;;;;;;;;20.60;19.50;;;;;;4993558;28;19916;-63
2022/03/23 12:24:40;;;;;;;;;;;20.70;18.70;;;;;;4995086;28;19949;-63
2022/03/23 12:27:24;;;;;;;;;;;20.70;19.40;;;;;;4995042;28;19913;-63
2022/03/23 12:29:51;;;;;;;;;;;20.60;19.20;;;;;;4994540;28;19925;-63
2022/03/23 12:32:17;;;;;;;;;;;20.70;19.20;;;;;;4994898;28;19917;-62
2022/03/23 12:34:43;;;;;;;;;;;20.30;18.30;;;;;;4994826;28;19914;-64
2022/03/23 12:37:10;;;;;;;;;;;20.30;19.50;;;;;;4994753;28;19922;-63
2022/03/23 12:39:54;;;;;;;;;;;20.40;18.90;;;;;;4994581;28;20350;-65
2022/03/23 12:42:31;;;;;;;;;;;20.70;19.90;;;;;;4994426;28;19913;-62
2022/03/23 12:44:56;;;;;;;;;;;20.90;19.50;;;;;;4994993;28;19934;-64
2022/03/23 12:47:25;;;;;;;;;;;21.00;19.20;;;;;;4994756;28;20401;-63
2022/03/23 12:58:10;;;;;;;;;;;20.40;19.60;;;;;;4994777;28;19916;-65
2022/03/23 13:00:38;;;;;;;;;;;20.20;19.90;;;;;;4994683;28;19910;-66
2022/03/23 13:03:04;;;;;;;;;;;20.10;20.40;;;;;;4994300;28;19913;-65
2022/03/23 13:05:31;;;;;;;;;;;19.80;20.20;;;;;;4994313;28;19909;-68
2022/03/23 13:07:57;;;;;;;;;;;19.60;19.90;;;;;;4993590;28;19913;-66
2022/03/23 13:10:24;;;;;;;;;;;19.50;21.10;;;;;;4994393;28;19925;-67
2022/03/23 13:12:51;;;;;;;;;;;19.70;22.10;;;;;;4994412;28;19917;-68
2022/03/23 13:15:18;;;;;;;;;;;20.00;23.40;;;;;;4994019;28;20801;-66
2022/03/23 13:17:45;;;;;;;;;;;19.80;23.70;;;;;;4976987;28;19914;-66
2022/03/23 13:20:11;;;;;;;;;;;19.50;24.70;;;;;;4976305;28;19914;-66
2022/03/23 13:22:41;;;;;;;;;;;19.50;24.30;;;;;;4974801;28;19910;-68
2022/03/23 13:25:12;;;;;;;;;;;19.40;24.10;;;;;;4974675;28;19914;-65
2022/03/23 13:27:38;;;;;;;;;;;19.40;23.60;;;;;;4974631;28;19910;-66
2022/03/23 13:30:05;;;;;;;;;;;19.30;24.10;;;;;;4992687;28;19966;-67
2022/03/23 13:32:32;;;;;;;;;;;19.50;25.40;;;;;;4993678;28;20361;-64
2022/03/23 13:34:57;;;;;;;;;;;18.80;25.50;;;;;;4993576;28;19981;-64
2022/03/23 13:37:23;;;;;;;;;;;18.90;26.00;;;;;;4993280;28;20284;-64
2022/03/23 13:39:49;;;;;;;;;;;18.90;25.80;;;;;;4993533;28;19910;-64
2022/03/23 13:45:05;;;;;;;;;;;19.40;24.60;;;;;;4993397;28;20266;-63
2022/03/23 13:47:31;;;;;;;;;;;18.90;25.30;;;;;;4993450;28;19909;-65
2022/03/23 13:49:59;;;;;;;;;;;18.50;25.60;;;;;;4993296;28;19952;-62
2022/03/23 13:52:25;;;;;;;;;;;18.70;24.60;;;;;;4993653;28;19910;-64
2022/03/23 13:54:52;;;;;;;;;;;19.00;24.20;;;;;;4993698;28;19910;-65
2022/03/23 13:57:18;;;;;;;;;;;19.20;24.00;;;;;;4993432;28;19914;-66
2022/03/23 13:59:46;;;;;;;;;;;19.20;23.60;;;;;;4989002;28;19914;-66
2022/03/23 14:02:17;;;;;;;;;;;18.60;24.90;;;;;;4989710;28;19913;-62
2022/03/23 14:04:43;;;;;;;;;;;18.50;25.70;;;;;;4983515;28;20409;-63
2022/03/23 14:07:11;;;;;;;;;;;18.70;25.10;;;;;;4987939;28;19956;-64
2022/03/23 14:09:40;;;;;;;;;;;18.70;24.70;;;;;;4991039;28;19913;-64
2022/03/23 14:12:08;;;;;;;;;;;18.70;25.10;;;;;;4992255;28;19914;-64
2022/03/23 14:14:35;;;;;;;;;;;18.80;25.50;;;;;;4991399;28;19925;-64
2022/03/23 14:17:01;;;;;;;;;;;18.60;26.20;;;;;;4991221;28;19917;-63
2022/03/23 14:19:28;;;;;;;;;;;18.60;26.50;;;;;;4992057;28;20380;-63
2022/03/23 14:21:54;;;;;;;;;;;18.60;26.00;;;;;;4991954;28;21294;-64
2022/03/23 14:24:20;;;;;;;;;;;18.80;26.30;;;;;;4988853;28;20060;-64
2022/03/23 14:26:45;;;;;;;;;;;18.70;25.80;;;;;;4992178;28;19918;-64
2022/03/23 14:29:20;;;;;;;;;;;18.90;25.50;;;;;;4991885;28;19930;-68
2022/03/23 14:31:46;;;;;;;;;;;18.70;22.60;;;;;;4996087;28;19918;-67
2022/03/23 14:34:11;;;;;;;;;;;18.60;23.00;;;;;;4995875;28;20341;-67
2022/03/23 14:36:37;;;;;;;;;;;18.40;22.50;;;;;;4993783;28;20782;-64
2022/03/23 14:39:15;;;;;;;;;;;18.70;23.70;;;;;;4995694;28;20000;-68
2022/03/23 14:41:54;;;;;;;;;;;18.80;21.90;;;;;;4990818;28;19910;-68
2022/03/23 14:44:31;;;;;;;;;;;18.90;22.20;;;;;;4979878;28;19910;-68
2022/03/23 14:46:59;;;;;;;;;;;18.90;22.10;;;;;;4989493;28;20401;-71